CFG7DW LEPA-EDDF
Flight info
| Callsign | CFG7DW |
|---|---|
| Flight time | 1h 46m |
| Altitude | 34000 |
| Route | MEROS DCT LAPIT DCT CHELY DCT LUMAS DCT MAXIR DCT LUSOL DCT BODRU DCT OKTET DCT IRMAR DCT KINES DCT VANAS DCT ESOKO DCT GODRA DCT LADOL T163 EMPAX EMPAX5B |
| Aircraft | A21N/M-SBDE3FGHIJ1J4J7LORVWXYZ/SB2D1G1 |
Departure
| Time | 2026-05-05 11:59 |
|---|---|
| Airport | Palma de Mallorca Airport (LEPA) |
Arrival
| Time | 2026-05-05 13:46 |
|---|---|
| Airport | Frankfurt Main Airport (EDDF) |
| Time | Latitude | Longitude | Altitude | Speed | Heading |
|---|---|---|---|---|---|
| 2026-05-05 11:01 | 39.55004 | 2.73737 | 43 ft | 0 kts | 239° |
| 2026-05-05 11:49 | 39.55006 | 2.73742 | 44 ft | 2 kts | 239° |
| 2026-05-05 11:49 | 39.55014 | 2.73759 | 44 ft | 2 kts | 239° |
| 2026-05-05 11:49 | 39.55022 | 2.73775 | 44 ft | 2 kts | 239° |
| 2026-05-05 11:50 | 39.55029 | 2.73792 | 44 ft | 2 kts | 239° |
| 2026-05-05 11:50 | 39.55037 | 2.73808 | 44 ft | 2 kts | 239° |
| 2026-05-05 11:50 | 39.55042 | 2.73827 | 44 ft | 2 kts | 275° |
| 2026-05-05 11:50 | 39.55037 | 2.73846 | 44 ft | 2 kts | 308° |
| 2026-05-05 11:51 | 39.55026 | 2.73857 | 44 ft | 1 kts | 335° |
| 2026-05-05 11:51 | 39.55023 | 2.73859 | 44 ft | 0 kts | 334° |
| 2026-05-05 11:53 | 39.55024 | 2.73859 | 44 ft | 0 kts | 334° |
| 2026-05-05 11:53 | 39.55037 | 2.73849 | 44 ft | 1 kts | 328° |
| 2026-05-05 11:53 | 39.55059 | 2.73831 | 44 ft | 6 kts | 328° |
| 2026-05-05 11:53 | 39.55107 | 2.73792 | 44 ft | 9 kts | 328° |
| 2026-05-05 11:54 | 39.55165 | 2.73783 | 44 ft | 8 kts | 44° |
| 2026-05-05 11:54 | 39.55211 | 2.73813 | 44 ft | 8 kts | 346° |
| 2026-05-05 11:54 | 39.55270 | 2.73773 | 44 ft | 10 kts | 329° |
| 2026-05-05 11:54 | 39.55341 | 2.73717 | 44 ft | 12 kts | 328° |
| 2026-05-05 11:55 | 39.55418 | 2.73654 | 44 ft | 13 kts | 328° |
| 2026-05-05 11:55 | 39.55497 | 2.73591 | 44 ft | 13 kts | 328° |
| 2026-05-05 11:55 | 39.55577 | 2.73529 | 45 ft | 12 kts | 328° |
| 2026-05-05 11:55 | 39.55655 | 2.73510 | 45 ft | 12 kts | 41° |
| 2026-05-05 11:56 | 39.55703 | 2.73606 | 45 ft | 12 kts | 59° |
| 2026-05-05 11:56 | 39.55751 | 2.73710 | 45 ft | 14 kts | 59° |
| 2026-05-05 11:56 | 39.55804 | 2.73823 | 45 ft | 13 kts | 58° |
| 2026-05-05 11:56 | 39.55859 | 2.73902 | 45 ft | 11 kts | 11° |
| 2026-05-05 11:57 | 39.55927 | 2.73866 | 45 ft | 10 kts | 328° |
| 2026-05-05 11:57 | 39.55986 | 2.73817 | 45 ft | 7 kts | 317° |
| 2026-05-05 11:57 | 39.55985 | 2.73758 | 45 ft | 4 kts | 241° |
| 2026-05-05 11:57 | 39.55982 | 2.73752 | 45 ft | 0 kts | 240° |
| 2026-05-05 11:58 | 39.55982 | 2.73751 | 45 ft | 0 kts | 240° |
| 2026-05-05 11:59 | 39.55929 | 2.73637 | 45 ft | 47 kts | 239° |
| 2026-05-05 11:59 | 39.55627 | 2.72999 | 45 ft | 116 kts | 238° |
| 2026-05-05 11:59 | 39.55111 | 2.71900 | 135 ft | 159 kts | 237° |
| 2026-05-05 11:59 | 39.54548 | 2.70682 | 679 ft | 161 kts | 238° |
| 2026-05-05 12:00 | 39.53968 | 2.69439 | 1314 ft | 163 kts | 237° |
| 2026-05-05 12:00 | 39.53376 | 2.68210 | 1879 ft | 165 kts | 236° |
| 2026-05-05 12:00 | 39.52735 | 2.66899 | 2157 ft | 180 kts | 236° |
| 2026-05-05 12:00 | 39.52040 | 2.65472 | 2461 ft | 195 kts | 237° |
| 2026-05-05 12:01 | 39.51293 | 2.63923 | 2764 ft | 210 kts | 238° |
| 2026-05-05 12:01 | 39.50501 | 2.62297 | 3139 ft | 223 kts | 237° |
| 2026-05-05 12:01 | 39.49557 | 2.60664 | 3601 ft | 233 kts | 223° |
| 2026-05-05 12:01 | 39.48169 | 2.59442 | 3964 ft | 250 kts | 211° |
| 2026-05-05 12:02 | 39.46622 | 2.58303 | 4483 ft | 260 kts | 211° |
| 2026-05-05 12:02 | 39.45045 | 2.57173 | 5192 ft | 262 kts | 210° |
| 2026-05-05 12:02 | 39.43410 | 2.56119 | 5899 ft | 265 kts | 202° |
| 2026-05-05 12:02 | 39.41603 | 2.55603 | 6588 ft | 270 kts | 182° |
| 2026-05-05 12:03 | 39.39780 | 2.56126 | 7299 ft | 277 kts | 156° |
| 2026-05-05 12:03 | 39.38281 | 2.57716 | 7940 ft | 286 kts | 130° |
| 2026-05-05 12:03 | 39.37455 | 2.60064 | 8576 ft | 296 kts | 103° |
| 2026-05-05 12:03 | 39.37479 | 2.62752 | 9168 ft | 304 kts | 86° |
| 2026-05-05 12:04 | 39.37735 | 2.65442 | 9678 ft | 307 kts | 85° |
| 2026-05-05 12:04 | 39.37995 | 2.68202 | 10245 ft | 311 kts | 86° |
| 2026-05-05 12:04 | 39.38248 | 2.71006 | 10582 ft | 324 kts | 86° |
| 2026-05-05 12:04 | 39.38506 | 2.73968 | 10806 ft | 339 kts | 86° |
| 2026-05-05 12:05 | 39.38768 | 2.77052 | 11106 ft | 351 kts | 86° |
| 2026-05-05 12:05 | 39.39032 | 2.80185 | 11639 ft | 356 kts | 86° |
| 2026-05-05 12:05 | 39.39301 | 2.83381 | 12167 ft | 360 kts | 86° |
| 2026-05-05 12:05 | 39.39571 | 2.86619 | 12695 ft | 364 kts | 86° |
| 2026-05-05 12:06 | 39.39841 | 2.89881 | 13213 ft | 368 kts | 86° |
| 2026-05-05 12:06 | 39.40112 | 2.93151 | 13663 ft | 372 kts | 86° |
| 2026-05-05 12:06 | 39.40429 | 2.96485 | 14129 ft | 377 kts | 81° |
| 2026-05-05 12:06 | 39.41445 | 2.99616 | 14581 ft | 383 kts | 54° |
| 2026-05-05 12:07 | 39.43294 | 3.02088 | 15229 ft | 379 kts | 39° |
| 2026-05-05 12:07 | 39.45310 | 3.04235 | 15769 ft | 379 kts | 37° |
| 2026-05-05 12:07 | 39.47361 | 3.06429 | 16255 ft | 382 kts | 38° |
| 2026-05-05 12:07 | 39.49378 | 3.08697 | 16704 ft | 386 kts | 40° |
| 2026-05-05 12:08 | 39.51373 | 3.11036 | 17149 ft | 389 kts | 41° |
| 2026-05-05 12:08 | 39.53350 | 3.13428 | 17560 ft | 393 kts | 41° |
| 2026-05-05 12:08 | 39.55340 | 3.15873 | 17972 ft | 396 kts | 41° |
| 2026-05-05 12:08 | 39.57309 | 3.18319 | 18377 ft | 399 kts | 42° |
| 2026-05-05 12:09 | 39.59318 | 3.20825 | 18779 ft | 402 kts | 42° |
| 2026-05-05 12:09 | 39.61330 | 3.23342 | 19170 ft | 405 kts | 42° |
| 2026-05-05 12:09 | 39.63361 | 3.25889 | 19543 ft | 408 kts | 42° |
| 2026-05-05 12:09 | 39.65405 | 3.28455 | 19910 ft | 411 kts | 42° |
| 2026-05-05 12:10 | 39.67468 | 3.31048 | 20279 ft | 414 kts | 42° |
| 2026-05-05 12:10 | 39.69540 | 3.33652 | 20642 ft | 417 kts | 41° |
| 2026-05-05 12:10 | 39.71635 | 3.36287 | 21017 ft | 419 kts | 42° |
| 2026-05-05 12:10 | 39.73724 | 3.38921 | 21359 ft | 423 kts | 41° |
| 2026-05-05 12:11 | 39.75861 | 3.41617 | 21689 ft | 426 kts | 41° |
| 2026-05-05 12:11 | 39.77971 | 3.44277 | 22030 ft | 428 kts | 42° |
| 2026-05-05 12:11 | 39.80123 | 3.46996 | 22362 ft | 431 kts | 42° |
| 2026-05-05 12:11 | 39.82279 | 3.49724 | 22664 ft | 435 kts | 42° |
| 2026-05-05 12:12 | 39.84433 | 3.52449 | 22992 ft | 437 kts | 42° |
| 2026-05-05 12:12 | 39.86620 | 3.55218 | 23328 ft | 439 kts | 42° |
| 2026-05-05 12:12 | 39.88800 | 3.57985 | 23628 ft | 442 kts | 41° |
| 2026-05-05 12:12 | 39.91009 | 3.60788 | 23948 ft | 444 kts | 42° |
| 2026-05-05 12:13 | 39.93207 | 3.63581 | 24257 ft | 446 kts | 42° |
| 2026-05-05 12:13 | 39.95440 | 3.66421 | 24540 ft | 449 kts | 43° |
| 2026-05-05 12:13 | 39.97691 | 3.69285 | 24831 ft | 451 kts | 42° |
| 2026-05-05 12:13 | 39.99947 | 3.72160 | 25108 ft | 454 kts | 43° |
| 2026-05-05 12:14 | 40.02193 | 3.75026 | 25353 ft | 457 kts | 42° |
| 2026-05-05 12:14 | 40.04472 | 3.77937 | 25622 ft | 459 kts | 42° |
| 2026-05-05 12:14 | 40.06932 | 3.80599 | 25817 ft | 456 kts | 26° |
| 2026-05-05 12:14 | 40.09799 | 3.82275 | 26115 ft | 449 kts | 14° |
| 2026-05-05 12:15 | 40.12733 | 3.83550 | 26383 ft | 449 kts | 12° |
| 2026-05-05 12:15 | 40.15729 | 3.84826 | 26613 ft | 452 kts | 13° |
| 2026-05-05 12:15 | 40.18681 | 3.86152 | 26835 ft | 455 kts | 14° |
| 2026-05-05 12:15 | 40.21702 | 3.87583 | 27072 ft | 458 kts | 15° |
| 2026-05-05 12:16 | 40.24681 | 3.89044 | 27287 ft | 460 kts | 15° |
| 2026-05-05 12:16 | 40.27652 | 3.90531 | 27508 ft | 462 kts | 15° |
| 2026-05-05 12:16 | 40.30669 | 3.92059 | 27758 ft | 464 kts | 15° |
| 2026-05-05 12:16 | 40.33700 | 3.93605 | 27973 ft | 466 kts | 15° |
| 2026-05-05 12:17 | 40.36728 | 3.95153 | 28201 ft | 468 kts | 15° |
| 2026-05-05 12:17 | 40.39740 | 3.96694 | 28425 ft | 470 kts | 16° |
| 2026-05-05 12:17 | 40.42883 | 3.98305 | 28626 ft | 472 kts | 15° |
| 2026-05-05 12:17 | 40.45937 | 3.99876 | 28852 ft | 474 kts | 15° |
| 2026-05-05 12:18 | 40.49018 | 4.01460 | 29052 ft | 476 kts | 15° |
| 2026-05-05 12:18 | 40.52090 | 4.03038 | 29238 ft | 478 kts | 15° |
| 2026-05-05 12:18 | 40.55209 | 4.04644 | 29431 ft | 480 kts | 15° |
| 2026-05-05 12:18 | 40.58334 | 4.06256 | 29653 ft | 482 kts | 15° |
| 2026-05-05 12:19 | 40.61430 | 4.07856 | 29880 ft | 483 kts | 15° |
| 2026-05-05 12:19 | 40.64581 | 4.09484 | 30087 ft | 485 kts | 15° |
| 2026-05-05 12:19 | 40.67747 | 4.11117 | 30260 ft | 487 kts | 15° |
| 2026-05-05 12:19 | 40.70873 | 4.12734 | 30460 ft | 489 kts | 15° |
| 2026-05-05 12:20 | 40.74039 | 4.14376 | 30680 ft | 490 kts | 15° |
| 2026-05-05 12:20 | 40.77218 | 4.16028 | 31027 ft | 488 kts | 15° |
| 2026-05-05 12:20 | 40.80384 | 4.17673 | 31329 ft | 487 kts | 15° |
| 2026-05-05 12:20 | 40.83550 | 4.19317 | 31528 ft | 489 kts | 15° |
| 2026-05-05 12:21 | 40.86710 | 4.20960 | 31731 ft | 490 kts | 15° |
| 2026-05-05 12:21 | 40.89846 | 4.22592 | 31911 ft | 492 kts | 15° |
| 2026-05-05 12:21 | 40.93061 | 4.24266 | 32077 ft | 494 kts | 15° |
| 2026-05-05 12:21 | 40.96280 | 4.25944 | 32241 ft | 496 kts | 15° |
| 2026-05-05 12:22 | 40.99464 | 4.27608 | 32416 ft | 498 kts | 15° |
| 2026-05-05 12:22 | 41.02709 | 4.29305 | 32588 ft | 500 kts | 15° |
| 2026-05-05 12:22 | 41.05957 | 4.31006 | 32774 ft | 501 kts | 15° |
| 2026-05-05 12:22 | 41.09209 | 4.32712 | 32949 ft | 503 kts | 15° |
| 2026-05-05 12:23 | 41.12504 | 4.34440 | 33087 ft | 504 kts | 15° |
| 2026-05-05 12:23 | 41.15731 | 4.36136 | 33248 ft | 506 kts | 15° |
| 2026-05-05 12:23 | 41.19031 | 4.37871 | 33436 ft | 506 kts | 15° |
| 2026-05-05 12:23 | 41.22273 | 4.39578 | 33647 ft | 506 kts | 15° |
| 2026-05-05 12:24 | 41.25543 | 4.41303 | 33833 ft | 506 kts | 15° |
| 2026-05-05 12:24 | 41.28841 | 4.43041 | 33945 ft | 507 kts | 15° |
| 2026-05-05 12:24 | 41.35387 | 4.46501 | 33953 ft | 507 kts | 15° |
| 2026-05-05 12:25 | 41.41959 | 4.49979 | 33958 ft | 508 kts | 15° |
| 2026-05-05 12:25 | 41.48498 | 4.53451 | 33959 ft | 507 kts | 15° |
| 2026-05-05 12:26 | 41.55045 | 4.56935 | 33954 ft | 507 kts | 15° |
| 2026-05-05 12:26 | 41.61601 | 4.60430 | 33954 ft | 508 kts | 15° |
| 2026-05-05 12:27 | 41.68138 | 4.63922 | 33957 ft | 508 kts | 15° |
| 2026-05-05 12:27 | 41.74622 | 4.67789 | 33957 ft | 512 kts | 22° |
| 2026-05-05 12:28 | 41.80978 | 4.72056 | 33958 ft | 510 kts | 20° |
| 2026-05-05 12:28 | 41.87360 | 4.76175 | 33958 ft | 510 kts | 20° |
| 2026-05-05 12:29 | 41.93748 | 4.80337 | 33954 ft | 511 kts | 21° |
| 2026-05-05 12:29 | 42.00094 | 4.84514 | 33952 ft | 510 kts | 21° |
| 2026-05-05 12:30 | 42.06464 | 4.88722 | 33954 ft | 510 kts | 21° |
| 2026-05-05 12:30 | 42.13006 | 4.93054 | 33951 ft | 510 kts | 21° |
| 2026-05-05 12:31 | 42.19326 | 4.97249 | 33950 ft | 509 kts | 21° |
| 2026-05-05 12:31 | 42.25663 | 5.01466 | 33950 ft | 509 kts | 21° |
| 2026-05-05 12:32 | 42.32001 | 5.05690 | 33947 ft | 509 kts | 21° |
| 2026-05-05 12:32 | 42.38375 | 5.09946 | 33940 ft | 509 kts | 21° |
| 2026-05-05 12:33 | 42.44707 | 5.14191 | 33939 ft | 508 kts | 21° |
| 2026-05-05 12:33 | 42.51050 | 5.18450 | 33939 ft | 508 kts | 21° |
| 2026-05-05 12:34 | 42.57355 | 5.22691 | 33940 ft | 508 kts | 22° |
| 2026-05-05 12:34 | 42.63702 | 5.26972 | 33938 ft | 507 kts | 21° |
| 2026-05-05 12:35 | 42.69967 | 5.31205 | 33938 ft | 506 kts | 22° |
| 2026-05-05 12:35 | 42.76312 | 5.35505 | 33940 ft | 506 kts | 22° |
| 2026-05-05 12:36 | 42.82587 | 5.39763 | 33935 ft | 506 kts | 22° |
| 2026-05-05 12:36 | 42.88860 | 5.44031 | 33936 ft | 505 kts | 22° |
| 2026-05-05 12:37 | 42.95161 | 5.48329 | 33932 ft | 505 kts | 22° |
| 2026-05-05 12:37 | 43.01419 | 5.52609 | 33935 ft | 504 kts | 22° |
| 2026-05-05 12:38 | 43.07683 | 5.56901 | 33928 ft | 504 kts | 22° |
| 2026-05-05 12:38 | 43.13926 | 5.61190 | 33932 ft | 504 kts | 22° |
| 2026-05-05 12:39 | 43.20196 | 5.65505 | 33930 ft | 504 kts | 23° |
| 2026-05-05 12:39 | 43.26475 | 5.69838 | 33931 ft | 504 kts | 23° |
| 2026-05-05 12:40 | 43.32715 | 5.74154 | 33937 ft | 504 kts | 23° |
| 2026-05-05 12:40 | 43.38973 | 5.78492 | 33939 ft | 504 kts | 23° |
| 2026-05-05 12:41 | 43.45207 | 5.82825 | 33932 ft | 503 kts | 23° |
| 2026-05-05 12:41 | 43.51480 | 5.87193 | 33933 ft | 503 kts | 23° |
| 2026-05-05 12:42 | 43.57706 | 5.91537 | 33948 ft | 503 kts | 23° |
| 2026-05-05 12:42 | 43.63916 | 5.95885 | 33945 ft | 503 kts | 23° |
| 2026-05-05 12:43 | 43.70181 | 6.00276 | 33947 ft | 503 kts | 24° |
| 2026-05-05 12:43 | 43.76398 | 6.04645 | 33946 ft | 503 kts | 24° |
| 2026-05-05 12:44 | 43.82633 | 6.09042 | 33951 ft | 503 kts | 24° |
| 2026-05-05 12:44 | 43.88887 | 6.13460 | 33947 ft | 502 kts | 24° |
| 2026-05-05 12:45 | 43.95079 | 6.17843 | 33946 ft | 503 kts | 24° |
| 2026-05-05 12:45 | 44.01332 | 6.22281 | 33948 ft | 503 kts | 24° |
| 2026-05-05 12:46 | 44.07536 | 6.26693 | 33956 ft | 502 kts | 24° |
| 2026-05-05 12:46 | 44.13766 | 6.31138 | 33953 ft | 502 kts | 24° |
| 2026-05-05 12:47 | 44.19987 | 6.35584 | 33958 ft | 502 kts | 24° |
| 2026-05-05 12:47 | 44.26163 | 6.40009 | 33962 ft | 502 kts | 24° |
| 2026-05-05 12:48 | 44.32384 | 6.44478 | 33970 ft | 502 kts | 24° |
| 2026-05-05 12:48 | 44.38594 | 6.48950 | 33963 ft | 501 kts | 24° |
| 2026-05-05 12:49 | 44.44793 | 6.53420 | 33959 ft | 502 kts | 24° |
| 2026-05-05 12:49 | 44.50958 | 6.57881 | 33956 ft | 501 kts | 24° |
| 2026-05-05 12:50 | 44.57205 | 6.62410 | 33950 ft | 502 kts | 24° |
| 2026-05-05 12:50 | 44.63422 | 6.66934 | 33953 ft | 501 kts | 24° |
| 2026-05-05 12:51 | 44.69595 | 6.71432 | 33965 ft | 502 kts | 25° |
| 2026-05-05 12:51 | 44.75899 | 6.75564 | 33975 ft | 498 kts | 16° |
| 2026-05-05 12:52 | 44.82523 | 6.78003 | 33980 ft | 493 kts | 4° |
| 2026-05-05 12:52 | 44.89336 | 6.78603 | 33962 ft | 487 kts | 352° |
| 2026-05-05 12:53 | 44.96108 | 6.78121 | 33956 ft | 485 kts | 350° |
| 2026-05-05 12:53 | 45.02808 | 6.77594 | 33962 ft | 486 kts | 351° |
| 2026-05-05 12:54 | 45.12935 | 6.76890 | 33964 ft | 486 kts | 351° |
| 2026-05-05 12:55 | 45.19734 | 6.76436 | 33957 ft | 486 kts | 352° |
| 2026-05-05 12:55 | 45.26463 | 6.75983 | 33956 ft | 486 kts | 352° |
| 2026-05-05 12:56 | 45.33210 | 6.75532 | 33950 ft | 484 kts | 352° |
| 2026-05-05 12:56 | 45.40014 | 6.75404 | 33947 ft | 490 kts | 359° |
| 2026-05-05 12:57 | 45.46779 | 6.77064 | 33950 ft | 497 kts | 12° |
| 2026-05-05 12:57 | 45.53212 | 6.80734 | 33959 ft | 500 kts | 26° |
| 2026-05-05 12:58 | 45.59187 | 6.85667 | 33960 ft | 500 kts | 30° |
| 2026-05-05 12:58 | 45.65178 | 6.90778 | 33954 ft | 499 kts | 29° |
| 2026-05-05 12:59 | 45.71112 | 6.95770 | 33953 ft | 499 kts | 29° |
| 2026-05-05 12:59 | 45.77108 | 7.00785 | 33970 ft | 499 kts | 28° |
| 2026-05-05 13:00 | 45.86090 | 7.08320 | 33968 ft | 498 kts | 28° |
| 2026-05-05 13:01 | 45.97977 | 7.18341 | 33962 ft | 498 kts | 28° |
| 2026-05-05 13:01 | 46.03959 | 7.23406 | 33967 ft | 498 kts | 29° |
| 2026-05-05 13:02 | 46.09905 | 7.28455 | 33968 ft | 497 kts | 29° |
| 2026-05-05 13:02 | 46.15874 | 7.33536 | 33965 ft | 497 kts | 29° |
| 2026-05-05 13:03 | 46.21830 | 7.38619 | 33962 ft | 496 kts | 29° |
| 2026-05-05 13:03 | 46.27758 | 7.43692 | 33950 ft | 496 kts | 29° |
| 2026-05-05 13:04 | 46.33663 | 7.48754 | 33957 ft | 496 kts | 29° |
| 2026-05-05 13:04 | 46.39588 | 7.53852 | 33965 ft | 495 kts | 29° |
| 2026-05-05 13:05 | 46.45516 | 7.58960 | 33945 ft | 495 kts | 29° |
| 2026-05-05 13:05 | 46.51418 | 7.64066 | 33945 ft | 495 kts | 29° |
| 2026-05-05 13:06 | 46.57302 | 7.69167 | 33939 ft | 494 kts | 30° |
| 2026-05-05 13:06 | 46.63320 | 7.74031 | 33946 ft | 494 kts | 27° |
| 2026-05-05 13:07 | 46.69395 | 7.78662 | 33949 ft | 493 kts | 27° |
| 2026-05-05 13:07 | 46.75454 | 7.83292 | 33940 ft | 492 kts | 27° |
| 2026-05-05 13:08 | 46.81529 | 7.87966 | 33929 ft | 491 kts | 27° |
| 2026-05-05 13:08 | 46.87540 | 7.92607 | 33917 ft | 491 kts | 27° |
| 2026-05-05 13:09 | 46.93579 | 7.97282 | 33909 ft | 490 kts | 27° |
| 2026-05-05 13:09 | 46.99595 | 8.01954 | 33910 ft | 490 kts | 27° |
| 2026-05-05 13:10 | 47.05661 | 8.06675 | 33919 ft | 489 kts | 27° |
| 2026-05-05 13:10 | 47.11638 | 8.11339 | 33905 ft | 488 kts | 27° |
| 2026-05-05 13:11 | 47.17619 | 8.16020 | 33912 ft | 488 kts | 28° |
| 2026-05-05 13:11 | 47.23625 | 8.20733 | 33905 ft | 488 kts | 28° |
| 2026-05-05 13:12 | 47.29604 | 8.25435 | 33910 ft | 488 kts | 28° |
| 2026-05-05 13:12 | 47.35558 | 8.30129 | 33891 ft | 487 kts | 28° |
| 2026-05-05 13:13 | 47.41565 | 8.34878 | 33894 ft | 486 kts | 28° |
| 2026-05-05 13:13 | 47.47504 | 8.39583 | 33894 ft | 485 kts | 28° |
| 2026-05-05 13:14 | 47.53451 | 8.44312 | 33895 ft | 485 kts | 28° |
| 2026-05-05 13:14 | 47.59212 | 8.48901 | 33896 ft | 484 kts | 29° |
| 2026-05-05 13:15 | 47.65162 | 8.53654 | 33902 ft | 484 kts | 29° |
| 2026-05-05 13:15 | 47.71063 | 8.58383 | 33880 ft | 483 kts | 29° |
| 2026-05-05 13:16 | 47.77037 | 8.63179 | 33891 ft | 484 kts | 29° |
| 2026-05-05 13:16 | 47.82941 | 8.67932 | 33881 ft | 482 kts | 30° |
| 2026-05-05 13:17 | 47.88816 | 8.72675 | 33875 ft | 481 kts | 30° |
| 2026-05-05 13:17 | 47.94701 | 8.77438 | 33870 ft | 480 kts | 30° |
| 2026-05-05 13:18 | 48.00590 | 8.82217 | 33882 ft | 479 kts | 30° |
| 2026-05-05 13:18 | 48.06420 | 8.86964 | 33871 ft | 479 kts | 30° |
| 2026-05-05 13:19 | 48.12407 | 8.91480 | 33864 ft | 481 kts | 24° |
| 2026-05-05 13:19 | 48.18734 | 8.94794 | 33863 ft | 482 kts | 15° |
| 2026-05-05 13:20 | 48.25293 | 8.96736 | 33863 ft | 482 kts | 7° |
| 2026-05-05 13:20 | 48.28663 | 8.97287 | 33647 ft | 482 kts | 5° |
| 2026-05-05 13:20 | 48.31949 | 8.97746 | 33183 ft | 479 kts | 5° |
| 2026-05-05 13:21 | 48.35259 | 8.98202 | 32587 ft | 477 kts | 5° |
| 2026-05-05 13:21 | 48.38557 | 8.98671 | 31919 ft | 476 kts | 6° |
| 2026-05-05 13:21 | 48.41857 | 8.99158 | 31219 ft | 476 kts | 6° |
| 2026-05-05 13:21 | 48.45106 | 8.99649 | 30513 ft | 476 kts | 6° |
| 2026-05-05 13:22 | 48.48399 | 9.00152 | 29759 ft | 476 kts | 6° |
| 2026-05-05 13:22 | 48.51703 | 9.00659 | 28996 ft | 476 kts | 6° |
| 2026-05-05 13:22 | 48.54995 | 9.01165 | 28235 ft | 477 kts | 6° |
| 2026-05-05 13:22 | 48.58299 | 9.01672 | 27503 ft | 477 kts | 6° |
| 2026-05-05 13:23 | 48.61586 | 9.02180 | 27028 ft | 473 kts | 7° |
| 2026-05-05 13:23 | 48.64835 | 9.02822 | 26538 ft | 469 kts | 9° |
| 2026-05-05 13:23 | 48.68030 | 9.03563 | 26042 ft | 465 kts | 9° |
| 2026-05-05 13:23 | 48.71214 | 9.04334 | 25538 ft | 461 kts | 9° |
| 2026-05-05 13:24 | 48.74345 | 9.05097 | 25034 ft | 457 kts | 10° |
| 2026-05-05 13:24 | 48.77478 | 9.05855 | 24536 ft | 453 kts | 9° |
| 2026-05-05 13:24 | 48.80591 | 9.06604 | 24043 ft | 449 kts | 9° |
| 2026-05-05 13:24 | 48.83629 | 9.07330 | 23553 ft | 445 kts | 9° |
| 2026-05-05 13:25 | 48.86673 | 9.08058 | 23074 ft | 442 kts | 9° |
| 2026-05-05 13:25 | 48.89705 | 9.08655 | 22583 ft | 438 kts | 6° |
| 2026-05-05 13:25 | 48.92724 | 9.09109 | 22089 ft | 434 kts | 5° |
| 2026-05-05 13:25 | 48.95717 | 9.09523 | 21602 ft | 431 kts | 5° |
| 2026-05-05 13:26 | 48.98683 | 9.09932 | 21114 ft | 428 kts | 5° |
| 2026-05-05 13:26 | 49.01642 | 9.10346 | 20662 ft | 427 kts | 5° |
| 2026-05-05 13:26 | 49.04593 | 9.10764 | 20121 ft | 425 kts | 5° |
| 2026-05-05 13:26 | 49.07525 | 9.11181 | 19593 ft | 422 kts | 5° |
| 2026-05-05 13:27 | 49.10426 | 9.11596 | 19077 ft | 419 kts | 5° |
| 2026-05-05 13:27 | 49.13341 | 9.12013 | 18570 ft | 415 kts | 5° |
| 2026-05-05 13:27 | 49.16227 | 9.12425 | 18055 ft | 412 kts | 5° |
| 2026-05-05 13:27 | 49.19045 | 9.12829 | 17554 ft | 409 kts | 5° |
| 2026-05-05 13:28 | 49.21868 | 9.13234 | 17048 ft | 406 kts | 5° |
| 2026-05-05 13:28 | 49.24675 | 9.13636 | 16536 ft | 403 kts | 5° |
| 2026-05-05 13:28 | 49.27462 | 9.14089 | 16034 ft | 400 kts | 8° |
| 2026-05-05 13:28 | 49.30166 | 9.14792 | 15498 ft | 399 kts | 12° |
| 2026-05-05 13:29 | 49.32868 | 9.15707 | 14950 ft | 397 kts | 13° |
| 2026-05-05 13:29 | 49.35564 | 9.16672 | 14400 ft | 396 kts | 13° |
| 2026-05-05 13:29 | 49.38234 | 9.17636 | 13850 ft | 394 kts | 14° |
| 2026-05-05 13:29 | 49.40867 | 9.18582 | 13317 ft | 392 kts | 13° |
| 2026-05-05 13:30 | 49.43505 | 9.19524 | 12760 ft | 390 kts | 13° |
| 2026-05-05 13:30 | 49.46147 | 9.20467 | 12208 ft | 388 kts | 13° |
| 2026-05-05 13:30 | 49.48750 | 9.21392 | 11664 ft | 386 kts | 13° |
| 2026-05-05 13:30 | 49.51349 | 9.22318 | 11110 ft | 383 kts | 13° |
| 2026-05-05 13:31 | 49.53936 | 9.23240 | 10604 ft | 379 kts | 13° |
| 2026-05-05 13:31 | 49.56467 | 9.24142 | 10350 ft | 367 kts | 14° |
| 2026-05-05 13:31 | 49.58933 | 9.25023 | 10093 ft | 358 kts | 14° |
| 2026-05-05 13:31 | 49.61362 | 9.25892 | 9866 ft | 357 kts | 14° |
| 2026-05-05 13:32 | 49.63768 | 9.26753 | 9833 ft | 357 kts | 14° |
| 2026-05-05 13:32 | 49.66226 | 9.27359 | 9815 ft | 358 kts | 1° |
| 2026-05-05 13:32 | 49.68701 | 9.26806 | 9827 ft | 359 kts | 346° |
| 2026-05-05 13:32 | 49.71081 | 9.25825 | 9825 ft | 359 kts | 344° |
| 2026-05-05 13:33 | 49.73499 | 9.24753 | 9827 ft | 358 kts | 343° |
| 2026-05-05 13:33 | 49.75895 | 9.23679 | 9822 ft | 358 kts | 343° |
| 2026-05-05 13:33 | 49.78294 | 9.22604 | 9825 ft | 358 kts | 344° |
| 2026-05-05 13:33 | 49.80642 | 9.21547 | 9609 ft | 352 kts | 343° |
| 2026-05-05 13:34 | 49.82966 | 9.20500 | 9358 ft | 342 kts | 343° |
| 2026-05-05 13:34 | 49.85230 | 9.19476 | 9078 ft | 334 kts | 343° |
| 2026-05-05 13:34 | 49.87427 | 9.18478 | 8780 ft | 326 kts | 343° |
| 2026-05-05 13:34 | 49.89568 | 9.17511 | 8474 ft | 313 kts | 343° |
| 2026-05-05 13:35 | 49.91603 | 9.16606 | 8175 ft | 301 kts | 346° |
| 2026-05-05 13:35 | 49.93639 | 9.16383 | 7902 ft | 289 kts | 8° |
| 2026-05-05 13:35 | 49.95606 | 9.16923 | 7659 ft | 286 kts | 12° |
| 2026-05-05 13:35 | 49.97526 | 9.17594 | 7408 ft | 279 kts | 13° |
| 2026-05-05 13:36 | 49.99404 | 9.18283 | 7151 ft | 272 kts | 13° |
| 2026-05-05 13:36 | 50.01217 | 9.18961 | 6901 ft | 267 kts | 13° |
| 2026-05-05 13:36 | 50.02993 | 9.19632 | 6658 ft | 262 kts | 14° |
| 2026-05-05 13:36 | 50.04753 | 9.20300 | 6394 ft | 257 kts | 13° |
| 2026-05-05 13:37 | 50.06510 | 9.20488 | 6122 ft | 251 kts | 351° |
| 2026-05-05 13:37 | 50.08198 | 9.19936 | 5888 ft | 245 kts | 345° |
| 2026-05-05 13:37 | 50.09816 | 9.19256 | 5631 ft | 240 kts | 340° |
| 2026-05-05 13:37 | 50.11241 | 9.18022 | 5365 ft | 233 kts | 314° |
| 2026-05-05 13:38 | 50.12283 | 9.16107 | 5137 ft | 231 kts | 305° |
| 2026-05-05 13:38 | 50.13222 | 9.14069 | 4993 ft | 229 kts | 302° |
| 2026-05-05 13:38 | 50.13988 | 9.11907 | 4995 ft | 230 kts | 295° |
| 2026-05-05 13:38 | 50.14673 | 9.09668 | 4989 ft | 230 kts | 293° |
| 2026-05-05 13:39 | 50.15126 | 9.07285 | 4980 ft | 228 kts | 269° |
| 2026-05-05 13:39 | 50.14898 | 9.04868 | 4991 ft | 228 kts | 253° |
| 2026-05-05 13:39 | 50.14442 | 9.02482 | 4997 ft | 228 kts | 252° |
| 2026-05-05 13:39 | 50.13962 | 9.00158 | 4988 ft | 225 kts | 251° |
| 2026-05-05 13:40 | 50.13464 | 8.97909 | 5056 ft | 212 kts | 251° |
| 2026-05-05 13:40 | 50.12968 | 8.95767 | 5116 ft | 213 kts | 249° |
| 2026-05-05 13:40 | 50.12452 | 8.93591 | 4989 ft | 213 kts | 249° |
| 2026-05-05 13:40 | 50.11932 | 8.91448 | 4713 ft | 210 kts | 249° |
| 2026-05-05 13:41 | 50.11422 | 8.89351 | 4434 ft | 203 kts | 250° |
| 2026-05-05 13:41 | 50.10930 | 8.87342 | 4149 ft | 196 kts | 250° |
| 2026-05-05 13:41 | 50.10452 | 8.85394 | 3884 ft | 189 kts | 250° |
| 2026-05-05 13:41 | 50.09997 | 8.83531 | 3631 ft | 181 kts | 250° |
| 2026-05-05 13:42 | 50.09557 | 8.81727 | 3382 ft | 173 kts | 250° |
| 2026-05-05 13:42 | 50.09136 | 8.79995 | 3170 ft | 171 kts | 250° |
| 2026-05-05 13:42 | 50.08718 | 8.78272 | 2957 ft | 170 kts | 250° |
| 2026-05-05 13:42 | 50.08300 | 8.76544 | 2740 ft | 168 kts | 250° |
| 2026-05-05 13:43 | 50.07901 | 8.74890 | 2502 ft | 156 kts | 250° |
| 2026-05-05 13:43 | 50.07537 | 8.73379 | 2329 ft | 146 kts | 250° |
| 2026-05-05 13:43 | 50.07187 | 8.71926 | 2125 ft | 142 kts | 250° |
| 2026-05-05 13:43 | 50.06841 | 8.70489 | 1939 ft | 142 kts | 251° |
| 2026-05-05 13:44 | 50.06494 | 8.69044 | 1757 ft | 141 kts | 250° |
| 2026-05-05 13:44 | 50.06153 | 8.67623 | 1571 ft | 141 kts | 251° |
| 2026-05-05 13:44 | 50.05813 | 8.66194 | 1378 ft | 140 kts | 249° |
| 2026-05-05 13:44 | 50.05466 | 8.64768 | 1201 ft | 140 kts | 249° |
| 2026-05-05 13:45 | 50.05125 | 8.63340 | 1018 ft | 140 kts | 249° |
| 2026-05-05 13:45 | 50.04789 | 8.61928 | 844 ft | 139 kts | 249° |
| 2026-05-05 13:45 | 50.04452 | 8.60515 | 657 ft | 139 kts | 250° |
| 2026-05-05 13:45 | 50.04115 | 8.59116 | 479 ft | 138 kts | 249° |
| 2026-05-05 13:46 | 50.03791 | 8.57744 | 374 ft | 123 kts | 250° |
| 2026-05-05 13:46 | 50.03550 | 8.56748 | 373 ft | 73 kts | 250° |
| 2026-05-05 13:46 | 50.03436 | 8.56258 | 373 ft | 33 kts | 258° |
| 2026-05-05 13:46 | 50.03450 | 8.55937 | 373 ft | 27 kts | 278° |
| 2026-05-05 13:47 | 50.03472 | 8.55715 | 373 ft | 18 kts | 279° |
| 2026-05-05 13:47 | 50.03492 | 8.55520 | 373 ft | 18 kts | 272° |
| 2026-05-05 13:47 | 50.03461 | 8.55337 | 373 ft | 17 kts | 250° |
| 2026-05-05 13:47 | 50.03417 | 8.55161 | 373 ft | 17 kts | 249° |
| 2026-05-05 13:48 | 50.03390 | 8.55002 | 373 ft | 14 kts | 277° |
| 2026-05-05 13:48 | 50.03429 | 8.54866 | 373 ft | 11 kts | 317° |
| 2026-05-05 13:48 | 50.03508 | 8.54814 | 373 ft | 12 kts | 339° |
| 2026-05-05 13:48 | 50.03591 | 8.54764 | 373 ft | 13 kts | 339° |
| 2026-05-05 13:49 | 50.03677 | 8.54712 | 373 ft | 13 kts | 339° |
| 2026-05-05 13:49 | 50.03728 | 8.54617 | 373 ft | 12 kts | 261° |
| 2026-05-05 13:49 | 50.03698 | 8.54485 | 373 ft | 12 kts | 249° |
| 2026-05-05 13:49 | 50.03726 | 8.54378 | 373 ft | 12 kts | 336° |
| 2026-05-05 13:50 | 50.03800 | 8.54330 | 373 ft | 9 kts | 321° |
| 2026-05-05 13:50 | 50.03804 | 8.54237 | 373 ft | 9 kts | 249° |
| 2026-05-05 13:50 | 50.03779 | 8.54139 | 373 ft | 8 kts | 246° |
| 2026-05-05 13:50 | 50.03732 | 8.54119 | 373 ft | 8 kts | 165° |
| 2026-05-05 13:51 | 50.03706 | 8.54132 | 373 ft | 0 kts | 161° |
| 2026-05-05 13:51 | 50.03704 | 8.54133 | 373 ft | 0 kts | 160° |